createdAt,value
2019-03-16T00:00:32.187Z,10.70
2019-03-16T00:03:00.793Z,8.23
2019-03-16T00:05:29.343Z,13.27
2019-03-16T00:07:58.091Z,11.77
2019-03-16T00:10:26.805Z,14.30
2019-03-16T00:12:55.432Z,11.83
2019-03-16T00:15:24.053Z,13.37
2019-03-16T00:17:52.595Z,13.80
2019-03-16T00:20:21.146Z,12.43
2019-03-16T00:22:49.854Z,14.17
2019-03-16T00:25:18.508Z,11.53
2019-03-16T00:27:47.224Z,11.30
2019-03-16T00:30:15.911Z,15.73
2019-03-16T00:32:44.691Z,13.13
2019-03-16T00:35:13.363Z,9.97
2019-03-16T00:37:41.906Z,4.73
2019-03-16T00:40:12.254Z,10.43
2019-03-16T00:42:41.006Z,16.70
2019-03-16T00:45:10.984Z,12.20
2019-03-16T00:47:39.629Z,8.77
2019-03-16T00:50:10.576Z,10.60
2019-03-16T00:52:39.361Z,14.83
2019-03-16T00:55:10.283Z,12.73
2019-03-16T00:57:38.906Z,12.20
2019-03-16T01:00:12.274Z,13.60
2019-03-16T01:02:40.931Z,8.73
2019-03-16T01:05:09.710Z,10.80
2019-03-16T01:07:38.327Z,12.63
2019-03-16T01:10:08.555Z,12.13
2019-03-16T01:12:37.242Z,14.87
2019-03-16T01:15:11.270Z,11.97
2019-03-16T01:17:39.909Z,11.63
2019-03-16T01:20:10.330Z,14.40
2019-03-16T01:22:38.943Z,12.37
2019-03-16T01:25:08.651Z,10.63
2019-03-16T01:27:37.201Z,12.83
2019-03-16T01:30:08.846Z,11.03
2019-03-16T01:32:40.837Z,13.87
2019-03-16T01:35:07.773Z,14.63
2019-03-16T01:37:36.333Z,7.20
2019-03-16T01:40:06.651Z,11.30
2019-03-16T01:42:35.395Z,16.27
2019-03-16T01:45:09.356Z,11.77
2019-03-16T01:47:38.461Z,14.97
2019-03-16T01:50:09.451Z,9.63
2019-03-16T01:52:38.072Z,14.87
2019-03-16T01:55:08.607Z,12.73
2019-03-16T01:57:37.289Z,8.93
2019-03-16T02:00:09.000Z,19.47
2019-03-16T02:02:37.647Z,14.90
2019-03-16T02:05:07.138Z,22.37
2019-03-16T02:07:35.820Z,18.10
2019-03-16T02:10:05.272Z,12.07
2019-03-16T02:12:33.880Z,8.50
2019-03-16T02:15:02.596Z,14.40
2019-03-16T02:17:31.301Z,12.27
2019-03-16T02:19:59.774Z,16.13
2019-03-16T02:22:28.414Z,12.87
2019-03-16T02:24:57.138Z,14.80
2019-03-16T02:27:25.754Z,12.10
2019-03-16T02:29:54.298Z,13.10
2019-03-16T02:32:23.071Z,17.17
2019-03-16T02:34:51.717Z,12.47
2019-03-16T02:37:20.265Z,12.27
2019-03-16T02:39:49.147Z,12.07
2019-03-16T02:42:17.764Z,15.43
2019-03-16T02:44:46.723Z,17.83
2019-03-16T02:47:15.337Z,14.23
2019-03-16T02:49:43.969Z,16.73
2019-03-16T02:52:12.673Z,14.40
2019-03-16T02:54:41.220Z,13.73
2019-03-16T02:57:09.956Z,11.97
2019-03-16T02:59:38.502Z,11.80
2019-03-16T03:02:07.262Z,12.90
2019-03-16T03:04:35.875Z,17.17
2019-03-16T03:07:04.601Z,15.63
2019-03-16T03:09:33.157Z,15.63
2019-03-16T03:12:01.709Z,13.10
2019-03-16T03:14:30.303Z,8.53
2019-03-16T03:16:58.859Z,14.40
2019-03-16T03:19:27.507Z,11.27
2019-03-16T03:21:56.209Z,11.27
2019-03-16T03:24:24.966Z,12.60
2019-03-16T03:26:53.523Z,18.33
2019-03-16T03:29:22.192Z,16.13
2019-03-16T03:31:50.749Z,12.97
2019-03-16T03:34:19.289Z,11.00
2019-03-16T03:36:47.927Z,8.47
2019-03-16T03:39:16.473Z,15.00
2019-03-16T03:41:45.101Z,16.23
2019-03-16T03:44:13.815Z,14.50
2019-03-16T03:46:48.865Z,14.00
2019-03-16T03:49:17.471Z,12.43
2019-03-16T03:51:46.187Z,18.07
2019-03-16T03:54:14.871Z,16.50
2019-03-16T03:56:43.511Z,10.53
2019-03-16T03:59:12.144Z,10.43
2019-03-16T04:01:40.827Z,11.83
2019-03-16T04:04:15.819Z,19.10
2019-03-16T04:06:39.820Z,9.70
2019-03-16T04:09:08.715Z,20.70
2019-03-16T04:11:37.435Z,19.83
2019-03-16T04:14:06.132Z,16.43
2019-03-16T04:16:34.842Z,13.40
2019-03-16T04:19:03.571Z,16.50
2019-03-16T04:21:32.328Z,19.37
2019-03-16T04:24:00.874Z,11.33
2019-03-16T04:26:29.620Z,11.80
2019-03-16T04:28:58.170Z,11.57
2019-03-16T04:31:26.728Z,14.70
2019-03-16T04:33:55.379Z,9.93
2019-03-16T04:36:24.059Z,14.97
2019-03-16T04:38:52.683Z,16.43
2019-03-16T04:41:21.327Z,15.17
2019-03-16T04:43:49.871Z,19.50
2019-03-16T04:46:18.450Z,12.97
2019-03-16T04:48:47.002Z,16.63
2019-03-16T04:51:15.546Z,12.93
2019-03-16T04:53:44.134Z,16.90
2019-03-16T04:56:12.750Z,14.90
2019-03-16T04:58:41.231Z,13.67
2019-03-16T05:01:09.877Z,13.87
2019-03-16T05:03:38.426Z,12.17
2019-03-16T05:06:07.047Z,21.87
2019-03-16T05:08:35.900Z,15.93
2019-03-16T05:11:04.606Z,19.90
2019-03-16T05:13:33.134Z,14.83
2019-03-16T05:16:01.852Z,16.73
2019-03-16T05:18:30.469Z,16.83
2019-03-16T05:20:58.962Z,16.77
2019-03-16T05:23:27.602Z,13.80
2019-03-16T05:25:56.223Z,17.67
2019-03-16T05:28:24.972Z,13.63
2019-03-16T05:30:53.553Z,17.33
2019-03-16T05:33:22.182Z,16.60
2019-03-16T05:35:50.874Z,17.93
2019-03-16T05:38:19.690Z,15.17
2019-03-16T05:40:48.321Z,14.67
2019-03-16T05:43:16.912Z,14.73
2019-03-16T05:45:45.533Z,19.77
2019-03-16T05:48:14.085Z,16.53
2019-03-16T05:50:42.754Z,12.57
2019-03-16T05:53:11.306Z,25.10
2019-03-16T05:55:39.952Z,16.77
2019-03-16T05:58:08.562Z,16.40
2019-03-16T06:00:37.183Z,15.57
2019-03-16T06:03:05.720Z,17.83
2019-03-16T06:05:34.295Z,21.13
2019-03-16T06:08:02.929Z,23.17
2019-03-16T06:10:31.547Z,19.23
2019-03-16T06:13:00.178Z,15.33
2019-03-16T06:15:28.749Z,21.33
2019-03-16T06:17:57.281Z,15.67
2019-03-16T06:20:25.997Z,14.77
2019-03-16T06:22:54.606Z,16.10
2019-03-16T06:25:23.090Z,17.37
2019-03-16T06:27:51.664Z,21.20
2019-03-16T06:30:20.968Z,10.17
2019-03-16T06:32:49.713Z,16.93
2019-03-16T06:35:24.463Z,17.63
2019-03-16T06:37:48.610Z,14.63
2019-03-16T06:40:17.339Z,15.50
2019-03-16T06:42:45.964Z,16.53
2019-03-16T06:45:14.666Z,17.00
2019-03-16T06:47:43.363Z,19.67
2019-03-16T06:50:15.762Z,11.77
2019-03-16T06:52:44.304Z,12.83
2019-03-16T06:55:14.208Z,14.70
2019-03-16T06:57:42.863Z,13.73
2019-03-16T07:00:14.240Z,15.33
2019-03-16T07:02:42.862Z,17.80
2019-03-16T07:05:12.452Z,12.53
2019-03-16T07:07:41.149Z,14.80
2019-03-16T07:10:11.690Z,18.23
2019-03-16T07:12:40.459Z,16.33
2019-03-16T07:15:14.036Z,11.93
2019-03-16T07:17:42.831Z,16.17
2019-03-16T07:20:13.779Z,16.00
2019-03-16T07:22:42.462Z,15.07
2019-03-16T07:25:11.071Z,12.73
2019-03-16T07:27:39.792Z,15.57
2019-03-16T07:30:10.935Z,18.00
2019-03-16T07:32:39.623Z,17.20
2019-03-16T07:35:08.703Z,21.27
2019-03-16T07:37:37.394Z,15.70
2019-03-16T07:40:08.663Z,13.73
2019-03-16T07:42:37.255Z,21.07
2019-03-16T07:45:09.020Z,16.40
2019-03-16T07:47:38.275Z,19.13
2019-03-16T07:50:11.691Z,24.47
2019-03-16T07:52:40.375Z,15.60
2019-03-16T07:55:09.164Z,13.73
2019-03-16T07:57:40.638Z,16.97
2019-03-16T08:00:12.172Z,11.77
2019-03-16T08:02:42.297Z,14.97
2019-03-16T08:05:17.964Z,18.87
2019-03-16T08:07:41.400Z,14.20
2019-03-16T08:10:10.819Z,21.47
2019-03-16T08:12:39.571Z,22.53
2019-03-16T08:15:09.566Z,17.17
2019-03-16T08:17:38.207Z,16.07
2019-03-16T08:20:08.301Z,27.37
2019-03-16T08:22:36.911Z,24.47
2019-03-16T08:25:06.431Z,24.50
2019-03-16T08:27:35.035Z,21.87
2019-03-16T08:30:04.555Z,18.00
2019-03-16T08:32:33.176Z,17.67
2019-03-16T08:35:01.866Z,20.33
2019-03-16T08:37:30.444Z,18.60
2019-03-16T08:39:59.193Z,19.27
2019-03-16T08:42:27.804Z,19.13
2019-03-16T08:44:56.362Z,13.90
2019-03-16T08:47:25.058Z,15.70
2019-03-16T08:49:53.624Z,22.43
2019-03-16T08:52:22.172Z,14.47
2019-03-16T08:54:51.001Z,19.33
2019-03-16T08:57:20.112Z,17.83
2019-03-16T08:59:48.949Z,23.43
2019-03-16T09:02:17.585Z,19.70
2019-03-16T09:04:46.292Z,16.93
2019-03-16T09:07:14.984Z,22.20
2019-03-16T09:09:43.539Z,14.23
2019-03-16T09:12:12.187Z,20.03
2019-03-16T09:14:40.748Z,26.73
2019-03-16T09:17:09.447Z,19.23
2019-03-16T09:19:37.949Z,17.17
2019-03-16T09:22:06.555Z,12.40
2019-03-16T09:24:35.137Z,16.93
2019-03-16T09:27:03.749Z,17.87
2019-03-16T09:29:32.441Z,12.50
2019-03-16T09:32:01.083Z,15.23
2019-03-16T09:34:29.640Z,18.83
2019-03-16T09:36:58.315Z,16.40
2019-03-16T09:39:26.895Z,14.73
2019-03-16T09:41:55.534Z,14.10
2019-03-16T09:44:24.074Z,15.63
2019-03-16T09:46:52.929Z,13.77
2019-03-16T09:49:21.453Z,19.93
2019-03-16T09:51:50.016Z,11.40
2019-03-16T09:54:18.569Z,21.60
2019-03-16T09:57:00.016Z,13.13
2019-03-16T09:59:17.302Z,19.20
2019-03-16T10:01:45.871Z,16.20
2019-03-16T10:04:14.488Z,14.90
2019-03-16T10:06:43.103Z,17.97
2019-03-16T10:09:11.748Z,19.00
2019-03-16T10:11:40.363Z,15.40
2019-03-16T10:14:08.978Z,14.67
2019-03-16T10:16:37.637Z,12.57
2019-03-16T10:19:06.318Z,14.07
2019-03-16T10:21:34.869Z,14.37
2019-03-16T10:24:03.511Z,14.97
2019-03-16T10:26:32.189Z,13.53
2019-03-16T10:29:00.809Z,12.47
2019-03-16T10:31:29.386Z,13.70
2019-03-16T10:33:58.007Z,12.17
2019-03-16T10:36:26.555Z,12.87
2019-03-16T10:38:55.138Z,17.20
2019-03-16T10:41:23.761Z,19.10
2019-03-16T10:43:52.304Z,11.67
2019-03-16T10:46:20.875Z,17.17
2019-03-16T10:48:49.483Z,13.20
2019-03-16T10:51:18.100Z,12.57
2019-03-16T10:53:46.647Z,15.40
2019-03-16T10:56:15.244Z,20.73
2019-03-16T10:58:55.736Z,12.30
2019-03-16T11:01:14.043Z,19.07
2019-03-16T11:03:42.686Z,13.90
2019-03-16T11:06:11.242Z,12.37
2019-03-16T11:08:39.777Z,8.63
2019-03-16T11:11:08.427Z,13.37
2019-03-16T11:13:37.151Z,14.50
2019-03-16T11:16:05.842Z,14.77
2019-03-16T11:18:34.484Z,12.47
2019-03-16T11:21:03.039Z,18.17
2019-03-16T11:23:31.662Z,18.03
2019-03-16T11:26:00.360Z,13.57
2019-03-16T11:28:29.079Z,13.50
2019-03-16T11:31:00.739Z,16.53
2019-03-16T11:33:31.272Z,22.47
2019-03-16T11:35:59.954Z,11.67
2019-03-16T11:38:28.539Z,15.60
2019-03-16T11:40:57.169Z,15.57
2019-03-16T11:43:25.793Z,18.40
2019-03-16T11:45:54.409Z,14.77
2019-03-16T11:48:22.988Z,15.63
2019-03-16T11:50:51.635Z,18.80
2019-03-16T11:53:20.259Z,14.60
2019-03-16T11:55:48.980Z,14.53
2019-03-16T11:58:17.603Z,16.57
2019-03-16T12:00:46.288Z,18.83
2019-03-16T12:03:14.868Z,14.43
2019-03-16T12:05:43.494Z,19.03
2019-03-16T12:08:13.375Z,14.97
2019-03-16T12:10:43.335Z,14.50
2019-03-16T12:13:17.427Z,15.87
2019-03-16T12:15:42.094Z,12.10
2019-03-16T12:18:10.883Z,16.40
2019-03-16T12:20:39.575Z,19.23
2019-03-16T12:23:08.310Z,18.57
2019-03-16T12:25:36.897Z,24.83
2019-03-16T12:28:07.150Z,17.27
2019-03-16T12:30:35.775Z,18.50
2019-03-16T12:33:04.523Z,18.50
2019-03-16T12:35:33.212Z,12.30
2019-03-16T12:38:01.838Z,17.27
2019-03-16T12:40:30.455Z,15.80
2019-03-16T12:42:59.038Z,19.60
2019-03-16T12:45:27.666Z,17.43
2019-03-16T12:47:56.219Z,18.90
2019-03-16T12:50:24.807Z,16.50
2019-03-16T12:52:53.555Z,17.97
2019-03-16T12:55:22.177Z,20.87
2019-03-16T12:57:51.923Z,11.87
2019-03-16T13:00:20.811Z,21.43
2019-03-16T13:02:49.464Z,17.17
2019-03-16T13:05:18.014Z,18.73
2019-03-16T13:07:46.559Z,12.17
2019-03-16T13:10:17.358Z,15.13
2019-03-16T13:12:47.514Z,17.47
2019-03-16T13:15:16.207Z,16.17
2019-03-16T13:17:47.175Z,19.57
2019-03-16T13:20:17.691Z,19.37
2019-03-16T13:22:46.330Z,20.30
2019-03-16T13:25:15.043Z,16.13
2019-03-16T13:27:43.739Z,14.17
2019-03-16T13:30:16.342Z,13.73
2019-03-16T13:32:45.074Z,14.43
2019-03-16T13:35:13.764Z,17.83
2019-03-16T13:37:42.313Z,18.27
2019-03-16T13:40:15.440Z,13.40
2019-03-16T13:42:44.058Z,15.93
2019-03-16T13:45:12.874Z,15.23
2019-03-16T13:47:41.515Z,16.57
2019-03-16T13:50:20.855Z,10.07
2019-03-16T13:52:49.780Z,12.77
2019-03-16T13:55:18.391Z,18.80
2019-03-16T13:57:46.998Z,12.70
2019-03-16T14:00:17.093Z,12.30
2019-03-16T14:02:45.652Z,13.50
2019-03-16T14:05:14.366Z,13.77
2019-03-16T14:07:43.290Z,12.50
2019-03-16T14:10:23.339Z,16.40
2019-03-16T14:12:51.890Z,26.77
2019-03-16T14:15:20.520Z,54.57
2019-03-16T14:17:49.097Z,35.50
2019-03-16T14:20:17.922Z,20.07
2019-03-16T14:22:46.552Z,17.63
2019-03-16T14:25:15.127Z,17.87
2019-03-16T14:27:43.682Z,16.03
2019-03-16T14:30:29.133Z,15.37
2019-03-16T14:32:44.739Z,13.00
2019-03-16T14:35:13.434Z,18.33
2019-03-16T14:37:42.132Z,18.53
2019-03-16T14:40:15.001Z,14.40
2019-03-16T14:42:43.633Z,16.00
2019-03-16T14:45:14.086Z,15.10
2019-03-16T14:47:42.737Z,13.17
2019-03-16T14:50:16.305Z,11.17
2019-03-16T14:52:44.642Z,14.63
2019-03-16T14:55:13.361Z,11.90
2019-03-16T14:57:41.974Z,13.30
2019-03-16T15:00:13.205Z,12.33
2019-03-16T15:02:41.863Z,12.30
2019-03-16T15:05:10.650Z,16.93
2019-03-16T15:07:39.300Z,15.60
2019-03-16T15:10:10.487Z,15.23
2019-03-16T15:12:39.106Z,15.20
2019-03-16T15:15:13.234Z,17.93
2019-03-16T15:17:41.882Z,11.63
2019-03-16T15:20:11.365Z,17.53
2019-03-16T15:22:39.910Z,17.67
2019-03-16T15:25:11.416Z,17.17
2019-03-16T15:27:40.155Z,16.67
2019-03-16T15:30:21.798Z,12.87
2019-03-16T15:32:50.490Z,14.27
2019-03-16T15:35:19.106Z,15.90
2019-03-16T15:37:47.815Z,14.80
2019-03-16T15:40:16.699Z,15.30
2019-03-16T15:42:45.319Z,16.03
2019-03-16T15:45:25.549Z,14.30
2019-03-16T15:47:54.098Z,15.70
2019-03-16T15:50:22.711Z,13.27
2019-03-16T15:52:51.371Z,17.83
2019-03-16T15:55:20.052Z,20.70
2019-03-16T15:57:48.672Z,20.93
2019-03-16T16:00:18.275Z,12.60
2019-03-16T16:02:47.041Z,17.10
2019-03-16T16:05:15.722Z,16.53
2019-03-16T16:07:44.475Z,11.57
2019-03-16T16:10:15.318Z,11.47
2019-03-16T16:12:44.010Z,15.23
2019-03-16T16:15:13.241Z,18.33
2019-03-16T16:17:41.925Z,10.47
2019-03-16T16:20:12.692Z,11.93
2019-03-16T16:22:41.333Z,15.07
2019-03-16T16:25:11.422Z,11.63
2019-03-16T16:27:40.103Z,16.83
2019-03-16T16:30:16.422Z,13.30
2019-03-16T16:32:44.963Z,15.30
2019-03-16T16:35:14.470Z,16.13
2019-03-16T16:37:43.188Z,15.00
2019-03-16T16:40:18.825Z,9.87
2019-03-16T16:42:47.475Z,11.70
2019-03-16T16:45:16.857Z,15.57
2019-03-16T16:47:45.540Z,13.87
2019-03-16T16:50:15.893Z,9.13
2019-03-16T16:52:44.569Z,7.90
2019-03-16T16:55:13.286Z,7.43
2019-03-16T16:57:41.859Z,11.07
2019-03-16T17:00:16.168Z,11.03
2019-03-16T17:02:44.859Z,12.60
2019-03-16T17:05:13.582Z,12.10
2019-03-16T17:07:42.266Z,17.77
2019-03-16T17:10:17.094Z,11.00
2019-03-16T17:12:49.562Z,12.57
2019-03-16T17:15:22.250Z,10.90
2019-03-16T17:17:50.727Z,10.30
2019-03-16T17:20:19.418Z,17.07
2019-03-16T17:22:48.057Z,13.50
2019-03-16T17:25:16.769Z,17.67
2019-03-16T18:27:01.118Z,40.57
2019-03-16T18:29:29.666Z,53.17
2019-03-16T18:32:07.954Z,54.70
2019-03-16T18:34:31.046Z,48.93
2019-03-16T18:37:00.608Z,46.93
2019-03-16T18:39:33.451Z,71.83
2019-03-16T18:42:02.643Z,55.63
2019-03-16T18:44:38.307Z,63.93
2019-03-16T18:47:08.959Z,78.20
2019-03-16T18:49:37.955Z,82.53
2019-03-16T18:52:07.210Z,67.17
2019-03-16T18:54:36.365Z,75.03
2019-03-16T18:57:05.053Z,66.67
2019-03-16T18:59:33.666Z,72.70
2019-03-16T19:02:02.252Z,73.17
2019-03-16T19:04:30.799Z,62.87
2019-03-16T19:06:59.346Z,67.43
2019-03-16T19:09:27.898Z,56.43
2019-03-16T19:11:56.651Z,54.17
2019-03-16T19:14:25.341Z,62.60
2019-03-16T19:16:55.527Z,45.13
2019-03-16T19:19:24.371Z,47.53
2019-03-16T19:21:53.046Z,59.33
2019-03-16T19:24:21.785Z,65.37
2019-03-16T19:26:50.802Z,49.83
2019-03-16T19:29:19.386Z,54.73
2019-03-16T19:31:48.051Z,57.70
2019-03-16T19:34:16.840Z,55.47
2019-03-16T19:36:45.433Z,41.57
2019-03-16T19:39:14.339Z,44.87
2019-03-16T19:41:42.990Z,46.47
2019-03-16T19:44:11.660Z,49.13
2019-03-16T19:46:40.232Z,82.07
2019-03-16T19:49:08.828Z,172.63
2019-03-16T19:51:37.612Z,70.37
2019-03-16T19:54:06.338Z,89.40
2019-03-16T19:56:34.882Z,117.40
2019-03-16T19:59:03.522Z,89.03
2019-03-16T20:01:32.139Z,85.37
2019-03-16T20:04:00.627Z,107.00
2019-03-16T20:06:29.495Z,138.93
2019-03-16T20:08:58.155Z,116.37
2019-03-16T20:11:26.776Z,75.70
2019-03-16T20:13:55.626Z,82.43
2019-03-16T20:16:24.257Z,78.40
2019-03-16T20:18:52.982Z,90.83
2019-03-16T20:21:22.068Z,86.67
2019-03-16T20:23:50.638Z,66.70
2019-03-16T20:26:19.330Z,83.37
2019-03-16T20:28:48.028Z,82.13
2019-03-16T20:31:16.631Z,83.57
2019-03-16T20:33:45.230Z,87.23
2019-03-16T20:36:13.875Z,83.70
2019-03-16T20:38:42.598Z,95.20
2019-03-16T20:41:11.286Z,49.90
2019-03-16T20:43:39.876Z,53.13
2019-03-16T20:46:08.478Z,55.93
2019-03-16T20:48:37.140Z,57.23
2019-03-16T20:51:05.808Z,55.20
2019-03-16T20:53:34.558Z,74.50
2019-03-16T20:56:03.190Z,58.30
2019-03-16T20:58:31.967Z,63.97
2019-03-16T21:01:00.686Z,57.37
2019-03-16T21:03:29.809Z,55.30
2019-03-16T21:05:58.451Z,47.50
2019-03-16T21:08:27.086Z,61.37
2019-03-16T21:10:55.632Z,43.53
2019-03-16T21:13:24.188Z,47.70
2019-03-16T21:15:52.831Z,53.33
2019-03-16T21:18:21.770Z,48.50
2019-03-16T21:20:50.374Z,43.10
2019-03-16T21:23:19.019Z,41.73
2019-03-16T21:25:47.638Z,46.03
2019-03-16T21:28:16.482Z,45.87
2019-03-16T21:30:45.083Z,45.23
2019-03-16T21:33:13.823Z,42.40
2019-03-16T21:35:42.426Z,44.37
2019-03-16T21:38:11.118Z,42.17
2019-03-16T21:40:39.766Z,45.47
2019-03-16T21:43:08.386Z,47.20
2019-03-16T21:45:36.998Z,44.83
2019-03-16T21:48:05.714Z,44.93
2019-03-16T21:50:34.274Z,45.07
2019-03-16T21:53:02.924Z,45.93
2019-03-16T21:55:31.576Z,53.97
2019-03-16T21:58:00.304Z,70.40
2019-03-16T22:00:28.916Z,54.03
2019-03-16T22:02:57.637Z,61.47
2019-03-16T22:05:26.255Z,48.80
2019-03-16T22:07:54.793Z,46.50
2019-03-16T22:10:23.446Z,44.10
2019-03-16T22:12:52.090Z,46.20
2019-03-16T22:15:20.707Z,51.67
2019-03-16T22:17:49.428Z,47.87
2019-03-16T22:20:20.070Z,46.17
2019-03-16T22:22:49.722Z,48.97
2019-03-16T22:25:18.459Z,45.80
2019-03-16T22:27:47.054Z,46.00
2019-03-16T22:30:16.651Z,46.50
2019-03-16T22:32:45.405Z,51.67
2019-03-16T22:35:14.075Z,55.07
2019-03-16T22:37:42.706Z,51.03
2019-03-16T22:40:14.890Z,48.87
2019-03-16T22:42:43.519Z,49.10
2019-03-16T22:45:13.209Z,47.00
2019-03-16T22:47:41.933Z,48.20
2019-03-16T22:50:12.417Z,49.70
2019-03-16T22:52:41.082Z,47.33
2019-03-16T22:55:09.702Z,56.17
2019-03-16T22:57:38.268Z,51.77
2019-03-16T23:00:10.181Z,55.83
2019-03-16T23:02:38.826Z,61.20
2019-03-16T23:05:09.728Z,55.40
2019-03-16T23:07:38.438Z,51.07
2019-03-16T23:10:09.753Z,57.00
2019-03-16T23:12:38.440Z,50.37
2019-03-16T23:15:10.002Z,46.60
2019-03-16T23:17:38.729Z,50.17
2019-03-16T23:20:08.849Z,46.63
2019-03-16T23:22:37.911Z,48.50
2019-03-16T23:25:08.624Z,42.10
2019-03-16T23:27:37.178Z,38.37
2019-03-16T23:30:07.970Z,38.73
2019-03-16T23:32:36.516Z,40.57
2019-03-16T23:35:06.526Z,38.23
2019-03-16T23:37:35.237Z,36.57
2019-03-16T23:40:11.602Z,37.27
2019-03-16T23:42:40.365Z,35.47
2019-03-16T23:45:10.761Z,36.33
2019-03-16T23:47:39.406Z,36.53
2019-03-16T23:50:09.826Z,35.30
2019-03-16T23:52:38.514Z,36.87
2019-03-16T23:55:08.534Z,34.00
2019-03-16T23:57:37.143Z,35.03
